sensor_id;sensor_type;location;lat;lon;timestamp;temperature;humidity
17033;DHT22;63208;52.178;21.016;2023-04-02T03:26:14;7.10;99.90
17033;DHT22;63208;52.178;21.016;2023-04-02T03:28:45;7.10;99.90
17033;DHT22;63208;52.178;21.016;2023-04-02T03:31:12;7.10;99.90
17033;DHT22;63208;52.178;21.016;2023-04-02T03:33:42;7.10;99.90
17033;DHT22;63208;52.178;21.016;2023-04-02T03:36:13;7.10;99.90
17033;DHT22;63208;52.178;21.016;2023-04-02T03:38:43;7.00;99.90
17033;DHT22;63208;52.178;21.016;2023-04-02T03:41:11;7.10;99.90
17033;DHT22;63208;52.178;21.016;2023-04-02T03:46:12;7.10;99.90
17033;DHT22;63208;52.178;21.016;2023-04-02T03:48:40;7.10;99.90
17033;DHT22;63208;52.178;21.016;2023-04-02T03:51:11;7.10;99.90
17033;DHT22;63208;52.178;21.016;2023-04-02T03:53:39;7.00;99.90
17033;DHT22;63208;52.178;21.016;2023-04-02T03:56:08;7.00;99.90
17033;DHT22;63208;52.178;21.016;2023-04-02T03:58:37;6.90;99.90
17033;DHT22;63208;52.178;21.016;2023-04-02T04:01:06;7.00;99.90
17033;DHT22;63208;52.178;21.016;2023-04-02T04:03:38;7.00;99.90
17033;DHT22;63208;52.178;21.016;2023-04-02T04:06:07;6.90;99.90
17033;DHT22;63208;52.178;21.016;2023-04-02T04:08:36;6.90;99.90
17033;DHT22;63208;52.178;21.016;2023-04-02T04:11:07;6.90;99.90
17033;DHT22;63208;52.178;21.016;2023-04-02T04:13:35;6.90;99.90
17033;DHT22;63208;52.178;21.016;2023-04-02T04:16:06;6.90;99.90
17033;DHT22;63208;52.178;21.016;2023-04-02T04:18:38;6.90;99.90
17033;DHT22;63208;52.178;21.016;2023-04-02T04:21:11;6.80;99.90
17033;DHT22;63208;52.178;21.016;2023-04-02T04:23:39;6.80;99.90
17033;DHT22;63208;52.178;21.016;2023-04-02T04:26:16;6.70;99.90
17033;DHT22;63208;52.178;21.016;2023-04-02T04:31:14;6.80;99.90
17033;DHT22;63208;52.178;21.016;2023-04-02T04:33:47;6.70;99.90
17033;DHT22;63208;52.178;21.016;2023-04-02T04:36:20;6.70;99.90
17033;DHT22;63208;52.178;21.016;2023-04-02T04:38:53;6.60;99.90
17033;DHT22;63208;52.178;21.016;2023-04-02T04:43:51;6.70;99.90
17033;DHT22;63208;52.178;21.016;2023-04-02T04:46:21;6.60;99.90
17033;DHT22;63208;52.178;21.016;2023-04-02T04:48:53;6.60;99.90
17033;DHT22;63208;52.178;21.016;2023-04-02T04:51:22;6.60;99.90
17033;DHT22;63208;52.178;21.016;2023-04-02T04:56:18;6.40;99.90
17033;DHT22;63208;52.178;21.016;2023-04-02T04:58:47;6.50;99.90
17033;DHT22;63208;52.178;21.016;2023-04-02T05:03:43;6.40;99.90
17033;DHT22;63208;52.178;21.016;2023-04-02T05:06:22;6.40;99.90
17033;DHT22;63208;52.178;21.016;2023-04-02T05:08:49;6.40;99.90
17033;DHT22;63208;52.178;21.016;2023-04-02T05:11:19;6.10;99.90
17033;DHT22;63208;52.178;21.016;2023-04-02T05:13:49;6.20;99.90
17033;DHT22;63208;52.178;21.016;2023-04-02T05:16:20;6.20;99.90
17033;DHT22;63208;52.178;21.016;2023-04-02T05:18:49;6.20;99.90
17033;DHT22;63208;52.178;21.016;2023-04-02T05:21:20;6.20;99.90
17033;DHT22;63208;52.178;21.016;2023-04-02T05:23:50;6.20;99.90
17033;DHT22;63208;52.178;21.016;2023-04-02T05:26:20;6.20;99.90
17033;DHT22;63208;52.178;21.016;2023-04-02T05:28:50;6.30;99.90
17033;DHT22;63208;52.178;21.016;2023-04-02T05:31:19;6.30;99.90
17033;DHT22;63208;52.178;21.016;2023-04-02T05:33:47;6.30;99.90
17033;DHT22;63208;52.178;21.016;2023-04-02T05:36:17;6.40;99.90
17033;DHT22;63208;52.178;21.016;2023-04-02T05:41:16;6.30;99.90
17033;DHT22;63208;52.178;21.016;2023-04-02T05:43:47;6.40;99.90
17033;DHT22;63208;52.178;21.016;2023-04-02T05:46:15;6.40;99.90
17033;DHT22;63208;52.178;21.016;2023-04-02T05:48:42;6.30;99.90
17033;DHT22;63208;52.178;21.016;2023-04-02T05:53:38;6.10;99.90
17033;DHT22;63208;52.178;21.016;2023-04-02T05:56:07;6.10;99.90
17033;DHT22;63208;52.178;21.016;2023-04-02T05:58:39;6.10;99.90
17033;DHT22;63208;52.178;21.016;2023-04-02T06:01:15;6.10;99.90
17033;DHT22;63208;52.178;21.016;2023-04-02T06:04:01;6.20;99.90
17033;DHT22;63208;52.178;21.016;2023-04-02T06:06:40;6.20;99.90
17033;DHT22;63208;52.178;21.016;2023-04-02T06:11:42;6.10;99.90
17033;DHT22;63208;52.178;21.016;2023-04-02T06:14:12;6.00;99.90
17033;DHT22;63208;52.178;21.016;2023-04-02T06:24:25;5.60;99.90
17033;DHT22;63208;52.178;21.016;2023-04-02T06:26:54;5.50;99.90
17033;DHT22;63208;52.178;21.016;2023-04-02T06:29:25;5.50;99.90
17033;DHT22;63208;52.178;21.016;2023-04-02T06:31:54;5.60;99.90
17033;DHT22;63208;52.178;21.016;2023-04-02T06:34:22;5.70;99.90
17033;DHT22;63208;52.178;21.016;2023-04-02T06:41:44;5.80;99.90
17033;DHT22;63208;52.178;21.016;2023-04-02T06:44:11;5.80;99.90
17033;DHT22;63208;52.178;21.016;2023-04-02T06:46:42;5.70;99.90
17033;DHT22;63208;52.178;21.016;2023-04-02T06:49:16;5.70;99.90
17033;DHT22;63208;52.178;21.016;2023-04-02T06:51:44;5.70;99.90
17033;DHT22;63208;52.178;21.016;2023-04-02T06:54:13;5.70;99.90
17033;DHT22;63208;52.178;21.016;2023-04-02T06:56:41;5.70;99.90
17033;DHT22;63208;52.178;21.016;2023-04-02T06:59:08;5.70;99.90
17033;DHT22;63208;52.178;21.016;2023-04-02T07:01:38;5.70;99.90
17033;DHT22;63208;52.178;21.016;2023-04-02T07:04:08;5.80;99.90
17033;DHT22;63208;52.178;21.016;2023-04-02T07:06:35;5.70;99.90
17033;DHT22;63208;52.178;21.016;2023-04-02T07:09:02;5.80;99.90
17033;DHT22;63208;52.178;21.016;2023-04-02T07:11:29;5.70;99.90
17033;DHT22;63208;52.178;21.016;2023-04-02T07:13:56;5.70;99.90
17033;DHT22;63208;52.178;21.016;2023-04-02T07:16:23;5.80;99.90
17033;DHT22;63208;52.178;21.016;2023-04-02T07:18:51;5.70;99.90
17033;DHT22;63208;52.178;21.016;2023-04-02T07:21:19;5.70;99.90
17033;DHT22;63208;52.178;21.016;2023-04-02T07:23:46;5.70;99.90
17033;DHT22;63208;52.178;21.016;2023-04-02T07:33:33;5.60;99.90
17033;DHT22;63208;52.178;21.016;2023-04-02T07:38:28;5.50;99.90
17033;DHT22;63208;52.178;21.016;2023-04-02T07:40:55;5.50;99.90
17033;DHT22;63208;52.178;21.016;2023-04-02T07:45:49;5.50;99.90
17033;DHT22;63208;52.178;21.016;2023-04-02T07:48:16;5.50;99.90
17033;DHT22;63208;52.178;21.016;2023-04-02T07:50:43;5.50;99.90
17033;DHT22;63208;52.178;21.016;2023-04-02T07:53:24;5.40;99.90
17033;DHT22;63208;52.178;21.016;2023-04-02T07:55:54;5.50;99.90
17033;DHT22;63208;52.178;21.016;2023-04-02T07:58:34;5.40;99.90
17033;DHT22;63208;52.178;21.016;2023-04-02T08:01:01;5.50;99.90
17033;DHT22;63208;52.178;21.016;2023-04-02T08:03:28;5.50;99.90
17033;DHT22;63208;52.178;21.016;2023-04-02T08:05:55;5.50;99.90
17033;DHT22;63208;52.178;21.016;2023-04-02T08:08:22;5.60;99.90
17033;DHT22;63208;52.178;21.016;2023-04-02T08:10:50;5.70;99.90
17033;DHT22;63208;52.178;21.016;2023-04-02T08:13:18;5.70;99.90
17033;DHT22;63208;52.178;21.016;2023-04-02T08:15:45;5.80;99.90
17033;DHT22;63208;52.178;21.016;2023-04-02T08:18:12;5.90;99.90
17033;DHT22;63208;52.178;21.016;2023-04-02T08:20:38;5.90;99.90
17033;DHT22;63208;52.178;21.016;2023-04-02T08:23:11;6.00;99.90
17033;DHT22;63208;52.178;21.016;2023-04-02T08:25:39;5.90;99.90
17033;DHT22;63208;52.178;21.016;2023-04-02T08:28:06;5.90;99.90
17033;DHT22;63208;52.178;21.016;2023-04-02T08:30:35;9.20;99.90
17033;DHT22;63208;52.178;21.016;2023-04-02T08:33:02;5.90;99.90
17033;DHT22;63208;52.178;21.016;2023-04-02T08:35:32;5.80;99.90
17033;DHT22;63208;52.178;21.016;2023-04-02T08:37:59;5.80;99.90
17033;DHT22;63208;52.178;21.016;2023-04-02T08:40:27;5.70;99.90
17033;DHT22;63208;52.178;21.016;2023-04-02T08:45:49;5.80;99.90
17033;DHT22;63208;52.178;21.016;2023-04-02T08:48:17;5.80;99.90
17033;DHT22;63208;52.178;21.016;2023-04-02T08:50:44;5.80;99.90
17033;DHT22;63208;52.178;21.016;2023-04-02T08:53:12;5.90;99.90
17033;DHT22;63208;52.178;21.016;2023-04-02T08:55:41;5.90;99.90
17033;DHT22;63208;52.178;21.016;2023-04-02T08:58:16;5.80;99.90
17033;DHT22;63208;52.178;21.016;2023-04-02T09:00:46;5.80;99.90
17033;DHT22;63208;52.178;21.016;2023-04-02T09:03:16;5.90;99.90
17033;DHT22;63208;52.178;21.016;2023-04-02T09:05:44;5.80;99.90
17033;DHT22;63208;52.178;21.016;2023-04-02T09:08:14;5.80;99.90
17033;DHT22;63208;52.178;21.016;2023-04-02T09:10:43;5.80;99.90
17033;DHT22;63208;52.178;21.016;2023-04-02T09:13:15;5.70;99.90
17033;DHT22;63208;52.178;21.016;2023-04-02T09:15:43;5.70;99.90
17033;DHT22;63208;52.178;21.016;2023-04-02T09:18:11;5.70;99.90
17033;DHT22;63208;52.178;21.016;2023-04-02T09:20:40;5.60;99.90
17033;DHT22;63208;52.178;21.016;2023-04-02T09:23:07;5.70;99.90
17033;DHT22;63208;52.178;21.016;2023-04-02T09:25:42;5.80;99.90
17033;DHT22;63208;52.178;21.016;2023-04-02T09:28:09;5.80;99.90
17033;DHT22;63208;52.178;21.016;2023-04-02T09:30:54;5.70;99.90
17033;DHT22;63208;52.178;21.016;2023-04-02T09:33:44;5.70;99.90
17033;DHT22;63208;52.178;21.016;2023-04-02T09:36:31;5.80;99.90
17033;DHT22;63208;52.178;21.016;2023-04-02T09:39:17;5.80;99.90
17033;DHT22;63208;52.178;21.016;2023-04-02T09:44:50;5.90;99.90
17033;DHT22;63208;52.178;21.016;2023-04-02T09:47:22;6.00;99.90
17033;DHT22;63208;52.178;21.016;2023-04-02T09:49:50;6.00;99.90
17033;DHT22;63208;52.178;21.016;2023-04-02T09:52:20;6.10;99.90
17033;DHT22;63208;52.178;21.016;2023-04-02T09:55:04;6.00;99.90
17033;DHT22;63208;52.178;21.016;2023-04-02T10:11:22;5.70;99.90
17033;DHT22;63208;52.178;21.016;2023-04-02T10:13:52;5.80;99.90
17033;DHT22;63208;52.178;21.016;2023-04-02T10:16:21;5.80;99.90
17033;DHT22;63208;52.178;21.016;2023-04-02T10:18:49;5.80;99.90
17033;DHT22;63208;52.178;21.016;2023-04-02T10:21:18;5.70;99.90
17033;DHT22;63208;52.178;21.016;2023-04-02T10:23:45;5.60;99.90
17033;DHT22;63208;52.178;21.016;2023-04-02T10:26:17;5.60;99.90
17033;DHT22;63208;52.178;21.016;2023-04-02T10:28:58;5.70;99.90
17033;DHT22;63208;52.178;21.016;2023-04-02T10:31:30;5.60;99.90
17033;DHT22;63208;52.178;21.016;2023-04-02T10:33:58;5.60;99.90
17033;DHT22;63208;52.178;21.016;2023-04-02T10:42:25;5.80;99.90
17033;DHT22;63208;52.178;21.016;2023-04-02T10:44:59;5.80;99.90
17033;DHT22;63208;52.178;21.016;2023-04-02T10:47:30;5.80;99.90
17033;DHT22;63208;52.178;21.016;2023-04-02T10:50:03;5.80;99.90
17033;DHT22;63208;52.178;21.016;2023-04-02T10:52:33;5.80;99.90
17033;DHT22;63208;52.178;21.016;2023-04-02T10:55:01;5.80;99.90
17033;DHT22;63208;52.178;21.016;2023-04-02T10:57:32;5.60;99.90
17033;DHT22;63208;52.178;21.016;2023-04-02T11:00:04;5.60;99.90
17033;DHT22;63208;52.178;21.016;2023-04-02T11:02:34;5.50;99.90
17033;DHT22;63208;52.178;21.016;2023-04-02T11:05:06;5.50;99.90
17033;DHT22;63208;52.178;21.016;2023-04-02T11:07:42;5.60;99.90
17033;DHT22;63208;52.178;21.016;2023-04-02T11:10:11;5.60;99.90
17033;DHT22;63208;52.178;21.016;2023-04-02T11:12:45;5.70;99.90
17033;DHT22;63208;52.178;21.016;2023-04-02T11:15:15;5.70;99.90
17033;DHT22;63208;52.178;21.016;2023-04-02T11:23:03;5.70;99.90
17033;DHT22;63208;52.178;21.016;2023-04-02T11:25:30;5.70;99.90
17033;DHT22;63208;52.178;21.016;2023-04-02T11:28:10;5.80;99.90
17033;DHT22;63208;52.178;21.016;2023-04-02T11:30:39;5.70;99.90
17033;DHT22;63208;52.178;21.016;2023-04-02T11:33:22;5.60;99.90
17033;DHT22;63208;52.178;21.016;2023-04-02T11:35:50;5.50;99.90
17033;DHT22;63208;52.178;21.016;2023-04-02T11:41:05;5.40;99.90
17033;DHT22;63208;52.178;21.016;2023-04-02T11:43:46;5.40;99.90
17033;DHT22;63208;52.178;21.016;2023-04-02T11:51:48;5.50;99.90
17033;DHT22;63208;52.178;21.016;2023-04-02T11:54:20;5.50;99.90
17033;DHT22;63208;52.178;21.016;2023-04-02T11:56:50;5.50;99.90
17033;DHT22;63208;52.178;21.016;2023-04-02T11:59:19;5.60;99.90
17033;DHT22;63208;52.178;21.016;2023-04-02T12:01:57;5.50;99.90
17033;DHT22;63208;52.178;21.016;2023-04-02T12:04:36;5.50;99.90
17033;DHT22;63208;52.178;21.016;2023-04-02T12:07:10;5.70;99.90
17033;DHT22;63208;52.178;21.016;2023-04-02T12:09:45;5.70;99.90
17033;DHT22;63208;52.178;21.016;2023-04-02T12:12:15;5.90;99.90
17033;DHT22;63208;52.178;21.016;2023-04-02T12:14:44;5.80;99.90
17033;DHT22;63208;52.178;21.016;2023-04-02T12:17:20;5.80;99.90
17033;DHT22;63208;52.178;21.016;2023-04-02T12:19:50;5.80;99.90
17033;DHT22;63208;52.178;21.016;2023-04-02T12:22:19;5.70;99.90
17033;DHT22;63208;52.178;21.016;2023-04-02T12:24:47;5.70;99.90
17033;DHT22;63208;52.178;21.016;2023-04-02T12:27:18;8.00;99.90
17033;DHT22;63208;52.178;21.016;2023-04-02T12:29:47;5.70;99.90
17033;DHT22;63208;52.178;21.016;2023-04-02T12:32:23;5.60;99.90
17033;DHT22;63208;52.178;21.016;2023-04-02T12:34:50;5.50;99.90
17033;DHT22;63208;52.178;21.016;2023-04-02T12:37:23;5.40;99.90
17033;DHT22;63208;52.178;21.016;2023-04-02T12:39:51;5.50;99.90
17033;DHT22;63208;52.178;21.016;2023-04-02T12:42:24;5.50;99.90
17033;DHT22;63208;52.178;21.016;2023-04-02T12:44:51;5.40;99.90
17033;DHT22;63208;52.178;21.016;2023-04-02T12:47:18;7.80;99.90
17033;DHT22;63208;52.178;21.016;2023-04-02T12:52:50;5.50;99.90
17033;DHT22;63208;52.178;21.016;2023-04-02T13:01:50;5.60;99.90
17033;DHT22;63208;52.178;21.016;2023-04-02T13:04:19;5.60;99.90
17033;DHT22;63208;52.178;21.016;2023-04-02T13:06:47;5.60;99.90
17033;DHT22;63208;52.178;21.016;2023-04-02T13:09:26;5.60;99.90
17033;DHT22;63208;52.178;21.016;2023-04-02T13:11:54;5.60;99.90
17033;DHT22;63208;52.178;21.016;2023-04-02T13:17:35;5.70;99.90
17033;DHT22;63208;52.178;21.016;2023-04-02T13:22:43;5.70;99.90
17033;DHT22;63208;52.178;21.016;2023-04-02T13:25:12;5.70;99.90
17033;DHT22;63208;52.178;21.016;2023-04-02T13:27:39;5.80;99.90
17033;DHT22;63208;52.178;21.016;2023-04-02T13:30:06;5.90;99.90
17033;DHT22;63208;52.178;21.016;2023-04-02T13:32:36;5.90;99.90
17033;DHT22;63208;52.178;21.016;2023-04-02T13:35:03;5.80;99.90
17033;DHT22;63208;52.178;21.016;2023-04-02T13:37:30;5.80;99.90
17033;DHT22;63208;52.178;21.016;2023-04-02T13:39:57;5.80;99.90
17033;DHT22;63208;52.178;21.016;2023-04-02T13:42:25;5.70;99.90
17033;DHT22;63208;52.178;21.016;2023-04-02T13:44:52;5.80;99.90
17033;DHT22;63208;52.178;21.016;2023-04-02T13:47:19;5.80;99.90
17033;DHT22;63208;52.178;21.016;2023-04-02T13:49:46;5.90;99.90
17033;DHT22;63208;52.178;21.016;2023-04-02T13:52:13;5.90;99.90
17033;DHT22;63208;52.178;21.016;2023-04-02T13:54:42;5.90;99.90
17033;DHT22;63208;52.178;21.016;2023-04-02T13:57:09;5.80;99.90
17033;DHT22;63208;52.178;21.016;2023-04-02T13:59:37;5.80;99.90
17033;DHT22;63208;52.178;21.016;2023-04-02T14:02:05;5.80;99.90
17033;DHT22;63208;52.178;21.016;2023-04-02T14:04:34;5.70;99.90
17033;DHT22;63208;52.178;21.016;2023-04-02T14:07:14;5.70;99.90
17033;DHT22;63208;52.178;21.016;2023-04-02T14:09:50;9.70;99.90
17033;DHT22;63208;52.178;21.016;2023-04-02T14:12:22;5.60;99.90
17033;DHT22;63208;52.178;21.016;2023-04-02T14:15:08;5.40;99.90
17033;DHT22;63208;52.178;21.016;2023-04-02T14:23:51;5.40;99.90
17033;DHT22;63208;52.178;21.016;2023-04-02T14:26:23;5.40;99.90
17033;DHT22;63208;52.178;21.016;2023-04-02T14:28:56;5.30;99.90
17033;DHT22;63208;52.178;21.016;2023-04-02T14:31:28;5.10;99.90
17033;DHT22;63208;52.178;21.016;2023-04-02T14:33:59;5.20;99.90
17033;DHT22;63208;52.178;21.016;2023-04-02T14:36:30;5.10;99.90
17033;DHT22;63208;52.178;21.016;2023-04-02T14:39:00;5.10;99.90
17033;DHT22;63208;52.178;21.016;2023-04-02T14:41:31;5.00;99.90
17033;DHT22;63208;52.178;21.016;2023-04-02T14:44:02;4.80;99.90
17033;DHT22;63208;52.178;21.016;2023-04-02T14:46:31;4.80;99.90
17033;DHT22;63208;52.178;21.016;2023-04-02T14:48:58;4.80;99.90
17033;DHT22;63208;52.178;21.016;2023-04-02T14:51:29;4.80;99.90
17033;DHT22;63208;52.178;21.016;2023-04-02T14:53:58;4.90;99.90
17033;DHT22;63208;52.178;21.016;2023-04-02T14:56:27;4.90;99.90
17033;DHT22;63208;52.178;21.016;2023-04-02T14:58:59;4.80;99.90
17033;DHT22;63208;52.178;21.016;2023-04-02T15:01:29;4.90;99.90
17033;DHT22;63208;52.178;21.016;2023-04-02T15:04:00;4.80;99.90
17033;DHT22;63208;52.178;21.016;2023-04-02T15:06:30;4.80;99.90
17033;DHT22;63208;52.178;21.016;2023-04-02T15:08:57;4.70;99.90
17033;DHT22;63208;52.178;21.016;2023-04-02T15:11:28;4.70;99.90
17033;DHT22;63208;52.178;21.016;2023-04-02T15:13:58;4.70;99.90
17033;DHT22;63208;52.178;21.016;2023-04-02T15:16:28;4.80;99.90
17033;DHT22;63208;52.178;21.016;2023-04-02T15:18:57;4.80;99.90
17033;DHT22;63208;52.178;21.016;2023-04-02T15:21:31;4.80;99.90
17033;DHT22;63208;52.178;21.016;2023-04-02T15:24:01;6.20;99.90
17033;DHT22;63208;52.178;21.016;2023-04-02T15:26:32;4.50;99.90
17033;DHT22;63208;52.178;21.016;2023-04-02T15:29:02;4.60;99.90
17033;DHT22;63208;52.178;21.016;2023-04-02T15:31:31;4.50;99.90
17033;DHT22;63208;52.178;21.016;2023-04-02T15:34:08;4.50;99.90
17033;DHT22;63208;52.178;21.016;2023-04-02T15:36:46;4.50;99.90
17033;DHT22;63208;52.178;21.016;2023-04-02T15:39:34;4.30;99.90
17033;DHT22;63208;52.178;21.016;2023-04-02T15:42:09;4.20;99.90
17033;DHT22;63208;52.178;21.016;2023-04-02T15:44:39;4.10;99.90
17033;DHT22;63208;52.178;21.016;2023-04-02T15:47:09;4.20;99.90
17033;DHT22;63208;52.178;21.016;2023-04-02T15:49:39;4.10;99.90
17033;DHT22;63208;52.178;21.016;2023-04-02T15:52:11;4.10;99.90
17033;DHT22;63208;52.178;21.016;2023-04-02T15:54:55;4.20;99.90
17033;DHT22;63208;52.178;21.016;2023-04-02T16:00:12;4.10;99.90
17033;DHT22;63208;52.178;21.016;2023-04-02T16:05:24;4.30;99.90
17033;DHT22;63208;52.178;21.016;2023-04-02T16:08:02;4.20;99.90
17033;DHT22;63208;52.178;21.016;2023-04-02T16:10:32;4.20;99.90
17033;DHT22;63208;52.178;21.016;2023-04-02T16:13:00;4.30;99.90
17033;DHT22;63208;52.178;21.016;2023-04-02T16:15:29;4.30;99.90
17033;DHT22;63208;52.178;21.016;2023-04-02T16:18:00;4.40;99.90
17033;DHT22;63208;52.178;21.016;2023-04-02T16:20:27;4.30;99.90
17033;DHT22;63208;52.178;21.016;2023-04-02T16:22:58;4.30;99.90
17033;DHT22;63208;52.178;21.016;2023-04-02T16:25:27;4.10;99.90
17033;DHT22;63208;52.178;21.016;2023-04-02T16:27:58;4.20;99.90
17033;DHT22;63208;52.178;21.016;2023-04-02T16:30:33;4.20;99.90
17033;DHT22;63208;52.178;21.016;2023-04-02T16:33:09;4.20;99.90
17033;DHT22;63208;52.178;21.016;2023-04-02T16:35:42;4.10;99.90
17033;DHT22;63208;52.178;21.016;2023-04-02T16:38:16;4.10;99.90
17033;DHT22;63208;52.178;21.016;2023-04-02T16:40:49;4.00;99.90
17033;DHT22;63208;52.178;21.016;2023-04-02T16:43:18;4.10;99.90
17033;DHT22;63208;52.178;21.016;2023-04-02T16:45:49;4.10;99.90
17033;DHT22;63208;52.178;21.016;2023-04-02T16:48:20;4.10;99.90
17033;DHT22;63208;52.178;21.016;2023-04-02T16:50:51;4.00;99.90
17033;DHT22;63208;52.178;21.016;2023-04-02T16:53:21;4.20;99.90
17033;DHT22;63208;52.178;21.016;2023-04-02T16:55:57;4.70;99.90
17033;DHT22;63208;52.178;21.016;2023-04-02T16:58:30;4.00;99.90
17033;DHT22;63208;52.178;21.016;2023-04-02T17:01:00;4.10;99.90
17033;DHT22;63208;52.178;21.016;2023-04-02T17:03:42;3.90;99.90
17033;DHT22;63208;52.178;21.016;2023-04-02T17:06:15;3.90;99.90
17033;DHT22;63208;52.178;21.016;2023-04-02T17:08:46;3.90;99.90
17033;DHT22;63208;52.178;21.016;2023-04-02T17:11:19;4.50;99.90
17033;DHT22;63208;52.178;21.016;2023-04-02T17:13:49;3.80;99.90
17033;DHT22;63208;52.178;21.016;2023-04-02T17:16:19;3.90;99.90
17033;DHT22;63208;52.178;21.016;2023-04-02T17:18:47;4.10;99.90
17033;DHT22;63208;52.178;21.016;2023-04-02T17:21:16;4.50;99.90
17033;DHT22;63208;52.178;21.016;2023-04-02T17:23:45;4.60;99.90
17033;DHT22;63208;52.178;21.016;2023-04-02T17:26:13;4.10;99.90
17033;DHT22;63208;52.178;21.016;2023-04-02T17:28:43;4.20;99.90
17033;DHT22;63208;52.178;21.016;2023-04-02T17:31:12;4.50;99.90
17033;DHT22;63208;52.178;21.016;2023-04-02T17:33:40;4.10;99.90
17033;DHT22;63208;52.178;21.016;2023-04-02T17:36:10;4.20;99.90
17033;DHT22;63208;52.178;21.016;2023-04-02T17:38:39;4.10;99.90
17033;DHT22;63208;52.178;21.016;2023-04-02T17:41:12;4.20;99.90
17033;DHT22;63208;52.178;21.016;2023-04-02T17:43:46;4.30;99.90
17033;DHT22;63208;52.178;21.016;2023-04-02T17:48:43;4.40;99.90
17033;DHT22;63208;52.178;21.016;2023-04-02T17:51:13;4.40;99.90
17033;DHT22;63208;52.178;21.016;2023-04-02T17:53:44;4.40;99.90
17033;DHT22;63208;52.178;21.016;2023-04-02T17:56:20;4.50;99.90
17033;DHT22;63208;52.178;21.016;2023-04-02T17:59:01;4.50;99.90
17033;DHT22;63208;52.178;21.016;2023-04-02T18:01:30;4.40;99.90
17033;DHT22;63208;52.178;21.016;2023-04-02T18:04:03;4.50;99.90
17033;DHT22;63208;52.178;21.016;2023-04-02T18:06:36;4.50;99.90
17033;DHT22;63208;52.178;21.016;2023-04-02T18:09:08;4.50;99.90
17033;DHT22;63208;52.178;21.016;2023-04-02T18:11:44;4.60;99.90
17033;DHT22;63208;52.178;21.016;2023-04-02T18:14:17;4.60;99.90
17033;DHT22;63208;52.178;21.016;2023-04-02T18:16:50;5.00;99.90
17033;DHT22;63208;52.178;21.016;2023-04-02T18:19:17;4.50;99.90
17033;DHT22;63208;52.178;21.016;2023-04-02T18:21:50;4.50;99.90
17033;DHT22;63208;52.178;21.016;2023-04-02T18:24:27;4.60;99.90
17033;DHT22;63208;52.178;21.016;2023-04-02T18:26:57;4.60;99.90
17033;DHT22;63208;52.178;21.016;2023-04-02T18:29:30;4.60;99.90
17033;DHT22;63208;52.178;21.016;2023-04-02T18:32:14;4.60;99.90
17033;DHT22;63208;52.178;21.016;2023-04-02T18:34:46;4.60;99.90
17033;DHT22;63208;52.178;21.016;2023-04-02T18:37:18;4.60;99.90
17033;DHT22;63208;52.178;21.016;2023-04-02T18:39:50;4.60;99.90
17033;DHT22;63208;52.178;21.016;2023-04-02T18:42:22;4.50;99.90
17033;DHT22;63208;52.178;21.016;2023-04-02T18:44:57;4.60;99.90
17033;DHT22;63208;52.178;21.016;2023-04-02T18:47:25;4.60;99.90
17033;DHT22;63208;52.178;21.016;2023-04-02T18:49:57;4.60;99.90
17033;DHT22;63208;52.178;21.016;2023-04-02T18:52:27;4.60;99.90
17033;DHT22;63208;52.178;21.016;2023-04-02T18:54:57;4.90;99.90
17033;DHT22;63208;52.178;21.016;2023-04-02T18:57:27;4.60;99.90
17033;DHT22;63208;52.178;21.016;2023-04-02T18:59:58;4.60;99.90
17033;DHT22;63208;52.178;21.016;2023-04-02T19:02:37;4.60;99.90
17033;DHT22;63208;52.178;21.016;2023-04-02T19:05:07;4.70;99.90
17033;DHT22;63208;52.178;21.016;2023-04-02T19:07:38;4.60;99.90
17033;DHT22;63208;52.178;21.016;2023-04-02T19:10:10;4.70;99.90
17033;DHT22;63208;52.178;21.016;2023-04-02T19:12:39;4.70;99.90
17033;DHT22;63208;52.178;21.016;2023-04-02T19:15:14;4.70;99.90
17033;DHT22;63208;52.178;21.016;2023-04-02T19:17:43;4.80;99.90
17033;DHT22;63208;52.178;21.016;2023-04-02T19:20:13;4.80;99.90
17033;DHT22;63208;52.178;21.016;2023-04-02T19:22:47;4.80;99.90
17033;DHT22;63208;52.178;21.016;2023-04-02T19:25:21;4.90;99.90
17033;DHT22;63208;52.178;21.016;2023-04-02T19:27:59;4.90;99.90
17033;DHT22;63208;52.178;21.016;2023-04-02T19:30:40;4.90;99.90
17033;DHT22;63208;52.178;21.016;2023-04-02T19:33:10;4.90;99.90
17033;DHT22;63208;52.178;21.016;2023-04-02T19:35:41;4.90;99.90
17033;DHT22;63208;52.178;21.016;2023-04-02T19:38:12;4.90;99.90
17033;DHT22;63208;52.178;21.016;2023-04-02T19:40:44;4.90;99.90
17033;DHT22;63208;52.178;21.016;2023-04-02T19:43:15;5.00;99.90
17033;DHT22;63208;52.178;21.016;2023-04-02T19:45:44;4.90;99.90
17033;DHT22;63208;52.178;21.016;2023-04-02T19:48:13;4.90;99.90
17033;DHT22;63208;52.178;21.016;2023-04-02T19:50:40;5.00;99.90
17033;DHT22;63208;52.178;21.016;2023-04-02T19:53:07;5.00;99.90
17033;DHT22;63208;52.178;21.016;2023-04-02T19:55:34;5.00;99.90
17033;DHT22;63208;52.178;21.016;2023-04-02T19:58:01;5.00;99.90
17033;DHT22;63208;52.178;21.016;2023-04-02T20:00:27;5.10;99.90
17033;DHT22;63208;52.178;21.016;2023-04-02T20:02:56;5.30;99.90
17033;DHT22;63208;52.178;21.016;2023-04-02T20:05:22;5.10;99.90
17033;DHT22;63208;52.178;21.016;2023-04-02T20:07:49;5.10;99.90
17033;DHT22;63208;52.178;21.016;2023-04-02T20:10:16;5.30;99.90
17033;DHT22;63208;52.178;21.016;2023-04-02T20:12:44;5.20;99.90
17033;DHT22;63208;52.178;21.016;2023-04-02T20:15:11;5.20;99.90
17033;DHT22;63208;52.178;21.016;2023-04-02T20:17:37;5.20;99.90
17033;DHT22;63208;52.178;21.016;2023-04-02T20:20:06;6.10;99.90
17033;DHT22;63208;52.178;21.016;2023-04-02T20:22:34;5.20;99.90
17033;DHT22;63208;52.178;21.016;2023-04-02T20:25:01;5.20;99.90
17033;DHT22;63208;52.178;21.016;2023-04-02T20:27:28;5.20;99.90
17033;DHT22;63208;52.178;21.016;2023-04-02T20:29:56;5.20;99.90
17033;DHT22;63208;52.178;21.016;2023-04-02T20:32:22;5.10;99.90
17033;DHT22;63208;52.178;21.016;2023-04-02T20:34:49;5.20;99.90
17033;DHT22;63208;52.178;21.016;2023-04-02T20:37:17;5.20;99.90
17033;DHT22;63208;52.178;21.016;2023-04-02T20:39:44;5.10;99.90
17033;DHT22;63208;52.178;21.016;2023-04-02T20:42:11;5.20;99.90
17033;DHT22;63208;52.178;21.016;2023-04-02T20:44:38;5.20;99.90
17033;DHT22;63208;52.178;21.016;2023-04-02T20:47:05;5.20;99.90
17033;DHT22;63208;52.178;21.016;2023-04-02T20:49:32;5.20;99.90
17033;DHT22;63208;52.178;21.016;2023-04-02T20:51:59;5.10;99.90
17033;DHT22;63208;52.178;21.016;2023-04-02T20:54:27;5.20;99.90
17033;DHT22;63208;52.178;21.016;2023-04-02T20:56:56;5.10;99.90
17033;DHT22;63208;52.178;21.016;2023-04-02T20:59:23;5.10;99.90
17033;DHT22;63208;52.178;21.016;2023-04-02T21:01:50;5.10;99.90
17033;DHT22;63208;52.178;21.016;2023-04-02T21:04:16;5.10;99.90
17033;DHT22;63208;52.178;21.016;2023-04-02T21:06:43;5.10;99.90
17033;DHT22;63208;52.178;21.016;2023-04-02T21:09:12;5.10;99.90